sensor_id;sensor_type;location;lat;lon;timestamp;P1;durP1;ratioP1;P2;durP2;ratioP2
14903;SDS011;7543;53.148;8.234;2023-01-31T00:00:24;7.77;;;2.50;;
14903;SDS011;7543;53.148;8.234;2023-01-31T00:02:52;6.13;;;1.53;;
14903;SDS011;7543;53.148;8.234;2023-01-31T00:05:20;7.37;;;1.67;;
14903;SDS011;7543;53.148;8.234;2023-01-31T00:07:48;5.30;;;1.13;;
14903;SDS011;7543;53.148;8.234;2023-01-31T00:10:16;7.77;;;1.90;;
14903;SDS011;7543;53.148;8.234;2023-01-31T00:12:44;10.17;;;1.50;;
14903;SDS011;7543;53.148;8.234;2023-01-31T00:15:14;7.40;;;1.50;;
14903;SDS011;7543;53.148;8.234;2023-01-31T00:17:44;8.20;;;1.53;;
14903;SDS011;7543;53.148;8.234;2023-01-31T00:20:12;8.70;;;2.07;;
14903;SDS011;7543;53.148;8.234;2023-01-31T00:22:40;8.37;;;1.40;;
14903;SDS011;7543;53.148;8.234;2023-01-31T00:25:08;5.53;;;1.60;;
14903;SDS011;7543;53.148;8.234;2023-01-31T00:27:36;8.43;;;1.63;;
14903;SDS011;7543;53.148;8.234;2023-01-31T00:30:05;6.83;;;1.47;;
14903;SDS011;7543;53.148;8.234;2023-01-31T00:32:35;6.40;;;1.73;;
14903;SDS011;7543;53.148;8.234;2023-01-31T00:35:04;10.67;;;2.10;;
14903;SDS011;7543;53.148;8.234;2023-01-31T00:37:32;8.87;;;1.80;;
14903;SDS011;7543;53.148;8.234;2023-01-31T00:40:01;8.97;;;1.80;;
14903;SDS011;7543;53.148;8.234;2023-01-31T00:42:30;9.33;;;1.90;;
14903;SDS011;7543;53.148;8.234;2023-01-31T00:44:58;8.20;;;1.53;;
14903;SDS011;7543;53.148;8.234;2023-01-31T00:47:26;5.67;;;1.70;;
14903;SDS011;7543;53.148;8.234;2023-01-31T00:49:55;9.17;;;1.87;;
14903;SDS011;7543;53.148;8.234;2023-01-31T00:52:24;8.77;;;1.87;;
14903;SDS011;7543;53.148;8.234;2023-01-31T00:54:52;5.07;;;1.37;;
14903;SDS011;7543;53.148;8.234;2023-01-31T00:57:20;10.87;;;1.70;;
14903;SDS011;7543;53.148;8.234;2023-01-31T00:59:48;5.80;;;1.50;;
14903;SDS011;7543;53.148;8.234;2023-01-31T01:02:17;8.23;;;1.40;;
14903;SDS011;7543;53.148;8.234;2023-01-31T01:04:45;10.87;;;1.60;;
14903;SDS011;7543;53.148;8.234;2023-01-31T01:07:15;10.13;;;1.87;;
14903;SDS011;7543;53.148;8.234;2023-01-31T01:09:43;9.27;;;1.47;;
14903;SDS011;7543;53.148;8.234;2023-01-31T01:12:11;7.63;;;1.50;;
14903;SDS011;7543;53.148;8.234;2023-01-31T01:14:39;10.47;;;1.60;;
14903;SDS011;7543;53.148;8.234;2023-01-31T01:17:08;3.73;;;1.37;;
14903;SDS011;7543;53.148;8.234;2023-01-31T01:19:36;2.87;;;1.17;;
14903;SDS011;7543;53.148;8.234;2023-01-31T01:22:05;9.83;;;2.00;;
14903;SDS011;7543;53.148;8.234;2023-01-31T01:24:36;8.27;;;1.67;;
14903;SDS011;7543;53.148;8.234;2023-01-31T01:27:04;10.57;;;1.80;;
14903;SDS011;7543;53.148;8.234;2023-01-31T01:29:33;11.93;;;1.90;;
14903;SDS011;7543;53.148;8.234;2023-01-31T01:32:02;8.60;;;1.50;;
14903;SDS011;7543;53.148;8.234;2023-01-31T01:34:31;18.60;;;1.90;;
14903;SDS011;7543;53.148;8.234;2023-01-31T01:37:00;11.03;;;1.63;;
14903;SDS011;7543;53.148;8.234;2023-01-31T01:39:38;7.13;;;1.77;;
14903;SDS011;7543;53.148;8.234;2023-01-31T01:42:12;7.13;;;1.77;;
14903;SDS011;7543;53.148;8.234;2023-01-31T01:44:47;13.33;;;1.83;;
14903;SDS011;7543;53.148;8.234;2023-01-31T01:47:20;5.73;;;1.70;;
14903;SDS011;7543;53.148;8.234;2023-01-31T01:49:55;11.37;;;2.27;;
14903;SDS011;7543;53.148;8.234;2023-01-31T01:52:27;7.00;;;1.57;;
14903;SDS011;7543;53.148;8.234;2023-01-31T01:54:58;7.83;;;1.57;;
14903;SDS011;7543;53.148;8.234;2023-01-31T01:57:31;3.80;;;1.50;;
14903;SDS011;7543;53.148;8.234;2023-01-31T02:00:06;5.87;;;1.47;;
14903;SDS011;7543;53.148;8.234;2023-01-31T02:02:41;7.33;;;1.17;;
14903;SDS011;7543;53.148;8.234;2023-01-31T02:05:10;9.93;;;2.13;;
14903;SDS011;7543;53.148;8.234;2023-01-31T02:07:42;17.97;;;2.10;;
14903;SDS011;7543;53.148;8.234;2023-01-31T02:10:12;14.90;;;1.70;;
14903;SDS011;7543;53.148;8.234;2023-01-31T02:12:43;5.07;;;1.60;;
14903;SDS011;7543;53.148;8.234;2023-01-31T02:15:11;11.30;;;2.33;;
14903;SDS011;7543;53.148;8.234;2023-01-31T02:17:40;9.60;;;1.70;;
14903;SDS011;7543;53.148;8.234;2023-01-31T02:20:12;8.70;;;1.60;;
14903;SDS011;7543;53.148;8.234;2023-01-31T02:23:05;8.80;;;1.30;;
14903;SDS011;7543;53.148;8.234;2023-01-31T02:25:48;10.90;;;1.63;;
14903;SDS011;7543;53.148;8.234;2023-01-31T02:31:50;9.63;;;1.50;;
14903;SDS011;7543;53.148;8.234;2023-01-31T02:34:45;10.40;;;1.93;;
14903;SDS011;7543;53.148;8.234;2023-01-31T02:37:19;5.27;;;1.60;;
14903;SDS011;7543;53.148;8.234;2023-01-31T02:39:54;14.27;;;1.83;;
14903;SDS011;7543;53.148;8.234;2023-01-31T02:42:30;11.20;;;2.00;;
14903;SDS011;7543;53.148;8.234;2023-01-31T02:45:04;7.73;;;1.53;;
14903;SDS011;7543;53.148;8.234;2023-01-31T02:47:47;13.60;;;1.67;;
14903;SDS011;7543;53.148;8.234;2023-01-31T02:50:28;16.83;;;1.80;;
14903;SDS011;7543;53.148;8.234;2023-01-31T02:52:58;10.70;;;2.10;;
14903;SDS011;7543;53.148;8.234;2023-01-31T02:55:34;8.60;;;2.33;;
14903;SDS011;7543;53.148;8.234;2023-01-31T02:58:22;11.00;;;2.17;;
14903;SDS011;7543;53.148;8.234;2023-01-31T03:00:54;12.33;;;1.97;;
14903;SDS011;7543;53.148;8.234;2023-01-31T03:03:26;7.07;;;1.20;;
14903;SDS011;7543;53.148;8.234;2023-01-31T03:06:11;11.63;;;2.07;;
14903;SDS011;7543;53.148;8.234;2023-01-31T03:08:55;13.83;;;1.93;;
14903;SDS011;7543;53.148;8.234;2023-01-31T03:11:31;9.50;;;2.13;;
14903;SDS011;7543;53.148;8.234;2023-01-31T03:14:06;12.90;;;2.03;;
14903;SDS011;7543;53.148;8.234;2023-01-31T03:16:40;8.73;;;1.53;;
14903;SDS011;7543;53.148;8.234;2023-01-31T03:19:30;10.40;;;1.70;;
14903;SDS011;7543;53.148;8.234;2023-01-31T03:22:02;5.57;;;1.03;;
14903;SDS011;7543;53.148;8.234;2023-01-31T03:24:34;18.33;;;1.60;;
14903;SDS011;7543;53.148;8.234;2023-01-31T03:27:04;9.73;;;1.73;;
14903;SDS011;7543;53.148;8.234;2023-01-31T03:29:33;10.20;;;2.40;;
14903;SDS011;7543;53.148;8.234;2023-01-31T03:32:07;7.80;;;1.67;;
14903;SDS011;7543;53.148;8.234;2023-01-31T03:34:42;6.30;;;1.10;;
14903;SDS011;7543;53.148;8.234;2023-01-31T03:37:11;5.80;;;1.40;;
14903;SDS011;7543;53.148;8.234;2023-01-31T03:39:51;10.10;;;1.53;;
14903;SDS011;7543;53.148;8.234;2023-01-31T03:42:22;10.60;;;1.40;;
14903;SDS011;7543;53.148;8.234;2023-01-31T03:44:54;3.53;;;1.37;;
14903;SDS011;7543;53.148;8.234;2023-01-31T03:47:26;4.37;;;1.37;;
14903;SDS011;7543;53.148;8.234;2023-01-31T03:50:00;8.77;;;1.47;;
14903;SDS011;7543;53.148;8.234;2023-01-31T03:52:32;6.83;;;1.80;;
14903;SDS011;7543;53.148;8.234;2023-01-31T03:55:04;9.90;;;2.27;;
14903;SDS011;7543;53.148;8.234;2023-01-31T03:57:36;6.30;;;1.60;;
14903;SDS011;7543;53.148;8.234;2023-01-31T04:00:08;8.60;;;1.80;;
14903;SDS011;7543;53.148;8.234;2023-01-31T04:02:41;12.57;;;1.63;;
14903;SDS011;7543;53.148;8.234;2023-01-31T04:05:14;6.23;;;1.50;;
14903;SDS011;7543;53.148;8.234;2023-01-31T04:07:47;12.43;;;1.90;;
14903;SDS011;7543;53.148;8.234;2023-01-31T04:10:22;5.70;;;1.57;;
14903;SDS011;7543;53.148;8.234;2023-01-31T04:12:52;6.53;;;1.13;;
14903;SDS011;7543;53.148;8.234;2023-01-31T04:15:20;4.40;;;1.30;;
14903;SDS011;7543;53.148;8.234;2023-01-31T04:17:49;8.83;;;1.30;;
14903;SDS011;7543;53.148;8.234;2023-01-31T04:20:18;5.90;;;1.00;;
14903;SDS011;7543;53.148;8.234;2023-01-31T04:22:47;6.53;;;1.33;;
14903;SDS011;7543;53.148;8.234;2023-01-31T04:25:15;8.33;;;1.47;;
14903;SDS011;7543;53.148;8.234;2023-01-31T04:27:43;4.53;;;1.33;;
14903;SDS011;7543;53.148;8.234;2023-01-31T04:30:12;5.00;;;1.20;;
14903;SDS011;7543;53.148;8.234;2023-01-31T04:32:40;2.23;;;0.87;;
14903;SDS011;7543;53.148;8.234;2023-01-31T04:35:08;6.73;;;1.53;;
14903;SDS011;7543;53.148;8.234;2023-01-31T04:37:38;10.63;;;1.37;;
14903;SDS011;7543;53.148;8.234;2023-01-31T04:40:07;13.30;;;1.70;;
14903;SDS011;7543;53.148;8.234;2023-01-31T04:42:37;6.83;;;1.23;;
14903;SDS011;7543;53.148;8.234;2023-01-31T04:45:05;7.90;;;1.40;;
14903;SDS011;7543;53.148;8.234;2023-01-31T04:47:35;5.43;;;1.40;;
14903;SDS011;7543;53.148;8.234;2023-01-31T04:50:03;3.93;;;1.10;;
14903;SDS011;7543;53.148;8.234;2023-01-31T04:52:32;4.47;;;1.00;;
14903;SDS011;7543;53.148;8.234;2023-01-31T04:55:02;4.93;;;1.00;;
14903;SDS011;7543;53.148;8.234;2023-01-31T04:57:31;9.77;;;1.70;;
14903;SDS011;7543;53.148;8.234;2023-01-31T04:59:59;4.17;;;0.80;;
14903;SDS011;7543;53.148;8.234;2023-01-31T05:02:29;7.60;;;1.23;;
14903;SDS011;7543;53.148;8.234;2023-01-31T05:04:57;6.30;;;1.37;;
14903;SDS011;7543;53.148;8.234;2023-01-31T05:07:26;7.97;;;1.50;;
14903;SDS011;7543;53.148;8.234;2023-01-31T05:09:54;6.80;;;1.20;;
14903;SDS011;7543;53.148;8.234;2023-01-31T05:12:23;8.63;;;1.60;;
14903;SDS011;7543;53.148;8.234;2023-01-31T05:14:52;7.43;;;1.90;;
14903;SDS011;7543;53.148;8.234;2023-01-31T05:17:20;3.13;;;1.10;;
14903;SDS011;7543;53.148;8.234;2023-01-31T05:19:55;6.13;;;1.10;;
14903;SDS011;7543;53.148;8.234;2023-01-31T05:22:23;2.30;;;0.90;;
14903;SDS011;7543;53.148;8.234;2023-01-31T05:24:52;4.93;;;1.37;;
14903;SDS011;7543;53.148;8.234;2023-01-31T05:27:20;7.73;;;1.30;;
14903;SDS011;7543;53.148;8.234;2023-01-31T05:29:49;6.23;;;1.30;;
14903;SDS011;7543;53.148;8.234;2023-01-31T05:32:18;3.80;;;1.23;;
14903;SDS011;7543;53.148;8.234;2023-01-31T05:34:46;5.87;;;1.20;;
14903;SDS011;7543;53.148;8.234;2023-01-31T05:37:14;7.43;;;1.47;;
14903;SDS011;7543;53.148;8.234;2023-01-31T05:39:42;6.43;;;1.40;;
14903;SDS011;7543;53.148;8.234;2023-01-31T05:42:10;5.03;;;1.37;;
14903;SDS011;7543;53.148;8.234;2023-01-31T05:44:39;5.37;;;1.30;;
14903;SDS011;7543;53.148;8.234;2023-01-31T05:47:08;5.13;;;1.80;;
14903;SDS011;7543;53.148;8.234;2023-01-31T05:49:36;6.40;;;1.30;;
14903;SDS011;7543;53.148;8.234;2023-01-31T05:52:04;6.77;;;1.20;;
14903;SDS011;7543;53.148;8.234;2023-01-31T05:54:33;6.53;;;2.13;;
14903;SDS011;7543;53.148;8.234;2023-01-31T05:57:01;9.23;;;1.70;;
14903;SDS011;7543;53.148;8.234;2023-01-31T05:59:29;5.70;;;1.13;;
14903;SDS011;7543;53.148;8.234;2023-01-31T06:01:59;10.33;;;1.97;;
14903;SDS011;7543;53.148;8.234;2023-01-31T06:04:28;3.47;;;1.40;;
14903;SDS011;7543;53.148;8.234;2023-01-31T06:06:56;6.20;;;1.70;;
14903;SDS011;7543;53.148;8.234;2023-01-31T06:09:25;8.13;;;1.90;;
14903;SDS011;7543;53.148;8.234;2023-01-31T06:11:53;9.77;;;2.00;;
14903;SDS011;7543;53.148;8.234;2023-01-31T06:14:21;5.67;;;1.83;;
14903;SDS011;7543;53.148;8.234;2023-01-31T06:16:49;6.67;;;2.00;;
14903;SDS011;7543;53.148;8.234;2023-01-31T06:19:18;7.90;;;2.17;;
14903;SDS011;7543;53.148;8.234;2023-01-31T06:21:52;5.57;;;1.27;;
14903;SDS011;7543;53.148;8.234;2023-01-31T06:24:20;12.13;;;2.27;;
14903;SDS011;7543;53.148;8.234;2023-01-31T06:26:48;7.70;;;1.83;;
14903;SDS011;7543;53.148;8.234;2023-01-31T06:29:16;10.73;;;1.80;;
14903;SDS011;7543;53.148;8.234;2023-01-31T06:31:45;9.17;;;1.80;;
14903;SDS011;7543;53.148;8.234;2023-01-31T06:34:13;9.13;;;1.97;;
14903;SDS011;7543;53.148;8.234;2023-01-31T06:36:41;5.07;;;1.70;;
14903;SDS011;7543;53.148;8.234;2023-01-31T06:39:12;6.80;;;1.90;;
14903;SDS011;7543;53.148;8.234;2023-01-31T06:41:40;11.23;;;1.97;;
14903;SDS011;7543;53.148;8.234;2023-01-31T06:44:09;7.87;;;2.17;;
14903;SDS011;7543;53.148;8.234;2023-01-31T06:46:37;8.93;;;2.10;;
14903;SDS011;7543;53.148;8.234;2023-01-31T06:49:05;6.33;;;2.20;;
14903;SDS011;7543;53.148;8.234;2023-01-31T06:51:33;9.97;;;2.50;;
14903;SDS011;7543;53.148;8.234;2023-01-31T06:54:02;9.97;;;2.23;;
14903;SDS011;7543;53.148;8.234;2023-01-31T06:56:31;11.47;;;2.57;;
14903;SDS011;7543;53.148;8.234;2023-01-31T06:59:00;9.93;;;2.33;;
14903;SDS011;7543;53.148;8.234;2023-01-31T07:01:28;13.50;;;2.23;;
14903;SDS011;7543;53.148;8.234;2023-01-31T07:03:57;5.20;;;2.07;;
14903;SDS011;7543;53.148;8.234;2023-01-31T07:06:25;10.33;;;2.60;;
14903;SDS011;7543;53.148;8.234;2023-01-31T07:08:53;6.03;;;1.93;;
14903;SDS011;7543;53.148;8.234;2023-01-31T07:11:21;9.17;;;2.60;;
14903;SDS011;7543;53.148;8.234;2023-01-31T07:13:51;7.63;;;2.10;;
14903;SDS011;7543;53.148;8.234;2023-01-31T07:16:19;11.83;;;2.70;;
14903;SDS011;7543;53.148;8.234;2023-01-31T07:18:50;4.30;;;1.33;;
14903;SDS011;7543;53.148;8.234;2023-01-31T07:21:18;13.17;;;2.00;;
14903;SDS011;7543;53.148;8.234;2023-01-31T07:23:47;11.90;;;2.23;;
14903;SDS011;7543;53.148;8.234;2023-01-31T07:26:15;5.77;;;2.63;;
14903;SDS011;7543;53.148;8.234;2023-01-31T07:28:43;10.67;;;2.67;;
14903;SDS011;7543;53.148;8.234;2023-01-31T07:31:13;8.20;;;2.27;;
14903;SDS011;7543;53.148;8.234;2023-01-31T07:33:41;16.07;;;2.83;;
14903;SDS011;7543;53.148;8.234;2023-01-31T07:36:10;10.57;;;2.90;;
14903;SDS011;7543;53.148;8.234;2023-01-31T07:38:40;7.13;;;2.60;;
14903;SDS011;7543;53.148;8.234;2023-01-31T07:41:08;10.63;;;3.10;;
14903;SDS011;7543;53.148;8.234;2023-01-31T07:43:37;11.40;;;3.07;;
14903;SDS011;7543;53.148;8.234;2023-01-31T07:46:06;10.37;;;2.63;;
14903;SDS011;7543;53.148;8.234;2023-01-31T07:48:38;7.93;;;3.07;;
14903;SDS011;7543;53.148;8.234;2023-01-31T07:51:06;10.93;;;3.30;;
14903;SDS011;7543;53.148;8.234;2023-01-31T07:53:35;15.83;;;3.27;;
14903;SDS011;7543;53.148;8.234;2023-01-31T07:56:08;12.93;;;3.07;;
14903;SDS011;7543;53.148;8.234;2023-01-31T07:58:38;7.03;;;2.77;;
14903;SDS011;7543;53.148;8.234;2023-01-31T08:01:08;13.47;;;2.77;;
14903;SDS011;7543;53.148;8.234;2023-01-31T08:04:10;10.30;;;2.63;;
14903;SDS011;7543;53.148;8.234;2023-01-31T08:06:41;8.80;;;2.70;;
14903;SDS011;7543;53.148;8.234;2023-01-31T08:09:10;10.37;;;2.63;;
14903;SDS011;7543;53.148;8.234;2023-01-31T08:11:38;8.93;;;3.03;;
14903;SDS011;7543;53.148;8.234;2023-01-31T08:14:07;16.80;;;2.77;;
14903;SDS011;7543;53.148;8.234;2023-01-31T08:16:35;11.03;;;3.30;;
14903;SDS011;7543;53.148;8.234;2023-01-31T08:22:26;7.90;;;3.17;;
14903;SDS011;7543;53.148;8.234;2023-01-31T08:24:54;7.50;;;3.03;;
14903;SDS011;7543;53.148;8.234;2023-01-31T08:27:22;10.73;;;3.03;;
14903;SDS011;7543;53.148;8.234;2023-01-31T08:30:15;13.47;;;3.30;;
14903;SDS011;7543;53.148;8.234;2023-01-31T08:32:44;9.07;;;3.17;;
14903;SDS011;7543;53.148;8.234;2023-01-31T08:35:12;8.87;;;3.17;;
14903;SDS011;7543;53.148;8.234;2023-01-31T08:37:42;10.23;;;3.23;;
14903;SDS011;7543;53.148;8.234;2023-01-31T08:40:10;7.90;;;2.97;;
14903;SDS011;7543;53.148;8.234;2023-01-31T08:42:39;9.50;;;2.97;;
14903;SDS011;7543;53.148;8.234;2023-01-31T08:45:07;7.07;;;2.77;;
14903;SDS011;7543;53.148;8.234;2023-01-31T08:47:36;10.60;;;3.17;;
14903;SDS011;7543;53.148;8.234;2023-01-31T08:50:06;13.43;;;3.30;;
14903;SDS011;7543;53.148;8.234;2023-01-31T08:52:34;10.20;;;3.63;;
14903;SDS011;7543;53.148;8.234;2023-01-31T08:55:04;7.67;;;2.60;;
14903;SDS011;7543;53.148;8.234;2023-01-31T08:57:35;13.43;;;3.40;;
14903;SDS011;7543;53.148;8.234;2023-01-31T09:00:03;14.23;;;2.97;;
14903;SDS011;7543;53.148;8.234;2023-01-31T09:02:32;5.13;;;2.87;;
14903;SDS011;7543;53.148;8.234;2023-01-31T09:05:01;9.70;;;3.50;;
14903;SDS011;7543;53.148;8.234;2023-01-31T09:07:29;9.43;;;3.10;;
14903;SDS011;7543;53.148;8.234;2023-01-31T09:09:57;6.27;;;3.00;;
14903;SDS011;7543;53.148;8.234;2023-01-31T09:12:26;7.57;;;2.60;;
14903;SDS011;7543;53.148;8.234;2023-01-31T09:14:55;7.43;;;3.30;;
14903;SDS011;7543;53.148;8.234;2023-01-31T09:17:23;13.03;;;2.87;;
14903;SDS011;7543;53.148;8.234;2023-01-31T09:19:51;9.33;;;2.80;;
14903;SDS011;7543;53.148;8.234;2023-01-31T09:22:19;7.37;;;2.90;;
14903;SDS011;7543;53.148;8.234;2023-01-31T09:24:48;9.93;;;2.57;;
14903;SDS011;7543;53.148;8.234;2023-01-31T09:27:16;11.17;;;2.77;;
14903;SDS011;7543;53.148;8.234;2023-01-31T09:29:46;7.30;;;2.40;;
14903;SDS011;7543;53.148;8.234;2023-01-31T09:32:14;4.93;;;2.37;;
14903;SDS011;7543;53.148;8.234;2023-01-31T09:34:42;10.77;;;2.40;;
14903;SDS011;7543;53.148;8.234;2023-01-31T09:37:13;15.07;;;2.73;;
14903;SDS011;7543;53.148;8.234;2023-01-31T09:39:41;6.83;;;2.23;;
14903;SDS011;7543;53.148;8.234;2023-01-31T09:42:13;12.47;;;2.80;;
14903;SDS011;7543;53.148;8.234;2023-01-31T09:44:48;8.67;;;2.57;;
14903;SDS011;7543;53.148;8.234;2023-01-31T09:47:26;6.60;;;2.00;;
14903;SDS011;7543;53.148;8.234;2023-01-31T09:49:57;7.90;;;1.83;;
14903;SDS011;7543;53.148;8.234;2023-01-31T09:52:28;10.07;;;2.20;;
14903;SDS011;7543;53.148;8.234;2023-01-31T09:54:58;7.50;;;2.50;;
14903;SDS011;7543;53.148;8.234;2023-01-31T09:57:33;7.73;;;2.87;;
14903;SDS011;7543;53.148;8.234;2023-01-31T10:00:14;7.50;;;2.73;;
14903;SDS011;7543;53.148;8.234;2023-01-31T10:05:38;3.60;;;1.63;;
14903;SDS011;7543;53.148;8.234;2023-01-31T10:08:12;7.57;;;2.17;;
14903;SDS011;7543;53.148;8.234;2023-01-31T10:10:43;9.77;;;2.47;;
14903;SDS011;7543;53.148;8.234;2023-01-31T10:13:16;4.50;;;2.00;;
14903;SDS011;7543;53.148;8.234;2023-01-31T10:15:50;10.63;;;3.10;;
14903;SDS011;7543;53.148;8.234;2023-01-31T10:18:23;14.87;;;2.83;;
14903;SDS011;7543;53.148;8.234;2023-01-31T10:20:53;8.70;;;2.33;;
14903;SDS011;7543;53.148;8.234;2023-01-31T10:23:26;6.47;;;2.30;;
14903;SDS011;7543;53.148;8.234;2023-01-31T10:25:58;3.93;;;1.90;;
14903;SDS011;7543;53.148;8.234;2023-01-31T10:28:29;8.43;;;2.07;;
14903;SDS011;7543;53.148;8.234;2023-01-31T10:31:03;7.43;;;2.43;;
14903;SDS011;7543;53.148;8.234;2023-01-31T10:33:37;11.90;;;2.40;;
14903;SDS011;7543;53.148;8.234;2023-01-31T10:36:10;7.57;;;2.40;;
14903;SDS011;7543;53.148;8.234;2023-01-31T10:38:43;12.20;;;2.57;;
14903;SDS011;7543;53.148;8.234;2023-01-31T10:41:23;8.80;;;2.00;;
14903;SDS011;7543;53.148;8.234;2023-01-31T10:43:58;5.43;;;2.10;;
14903;SDS011;7543;53.148;8.234;2023-01-31T10:46:30;5.50;;;2.00;;
14903;SDS011;7543;53.148;8.234;2023-01-31T10:48:58;4.87;;;2.43;;
14903;SDS011;7543;53.148;8.234;2023-01-31T10:51:29;7.87;;;2.33;;
14903;SDS011;7543;53.148;8.234;2023-01-31T10:54:18;6.07;;;2.27;;
14903;SDS011;7543;53.148;8.234;2023-01-31T10:57:12;5.40;;;2.03;;
14903;SDS011;7543;53.148;8.234;2023-01-31T10:59:41;9.27;;;2.93;;
14903;SDS011;7543;53.148;8.234;2023-01-31T11:02:18;12.60;;;3.00;;
14903;SDS011;7543;53.148;8.234;2023-01-31T11:04:49;8.10;;;2.03;;
14903;SDS011;7543;53.148;8.234;2023-01-31T11:07:18;8.13;;;2.47;;
14903;SDS011;7543;53.148;8.234;2023-01-31T11:09:47;3.83;;;1.83;;
14903;SDS011;7543;53.148;8.234;2023-01-31T11:12:17;6.80;;;2.20;;
14903;SDS011;7543;53.148;8.234;2023-01-31T11:14:48;6.43;;;2.20;;
14903;SDS011;7543;53.148;8.234;2023-01-31T11:17:32;3.60;;;1.93;;
14903;SDS011;7543;53.148;8.234;2023-01-31T11:20:03;7.70;;;2.20;;
14903;SDS011;7543;53.148;8.234;2023-01-31T11:22:35;4.53;;;1.67;;
14903;SDS011;7543;53.148;8.234;2023-01-31T11:25:04;9.70;;;2.27;;
14903;SDS011;7543;53.148;8.234;2023-01-31T11:27:35;3.77;;;1.73;;
14903;SDS011;7543;53.148;8.234;2023-01-31T11:30:05;8.80;;;1.63;;
14903;SDS011;7543;53.148;8.234;2023-01-31T11:32:35;6.03;;;1.73;;
14903;SDS011;7543;53.148;8.234;2023-01-31T11:35:04;8.53;;;2.30;;
14903;SDS011;7543;53.148;8.234;2023-01-31T11:37:34;4.53;;;1.90;;
14903;SDS011;7543;53.148;8.234;2023-01-31T11:40:18;4.80;;;1.70;;
14903;SDS011;7543;53.148;8.234;2023-01-31T11:42:49;2.77;;;1.57;;
14903;SDS011;7543;53.148;8.234;2023-01-31T11:45:19;3.97;;;1.27;;
14903;SDS011;7543;53.148;8.234;2023-01-31T11:47:51;4.73;;;1.63;;
14903;SDS011;7543;53.148;8.234;2023-01-31T11:50:21;4.57;;;2.00;;
14903;SDS011;7543;53.148;8.234;2023-01-31T11:52:53;4.87;;;1.90;;
14903;SDS011;7543;53.148;8.234;2023-01-31T11:55:22;4.40;;;1.50;;
14903;SDS011;7543;53.148;8.234;2023-01-31T12:01:43;6.33;;;1.67;;
14903;SDS011;7543;53.148;8.234;2023-01-31T12:04:15;2.90;;;1.40;;
14903;SDS011;7543;53.148;8.234;2023-01-31T12:06:53;6.07;;;1.67;;
14903;SDS011;7543;53.148;8.234;2023-01-31T12:09:24;3.07;;;1.43;;
14903;SDS011;7543;53.148;8.234;2023-01-31T12:11:54;4.70;;;1.50;;
14903;SDS011;7543;53.148;8.234;2023-01-31T12:14:23;3.53;;;0.97;;
14903;SDS011;7543;53.148;8.234;2023-01-31T12:16:53;2.17;;;1.30;;
14903;SDS011;7543;53.148;8.234;2023-01-31T12:19:30;1.53;;;0.83;;
14903;SDS011;7543;53.148;8.234;2023-01-31T12:22:08;3.30;;;1.10;;
14903;SDS011;7543;53.148;8.234;2023-01-31T12:24:41;1.47;;;1.27;;
14903;SDS011;7543;53.148;8.234;2023-01-31T12:27:18;3.30;;;1.50;;
14903;SDS011;7543;53.148;8.234;2023-01-31T12:30:02;2.57;;;0.90;;
14903;SDS011;7543;53.148;8.234;2023-01-31T12:35:42;3.73;;;1.20;;
14903;SDS011;7543;53.148;8.234;2023-01-31T12:38:18;2.37;;;1.03;;
14903;SDS011;7543;53.148;8.234;2023-01-31T12:40:54;2.50;;;0.90;;
14903;SDS011;7543;53.148;8.234;2023-01-31T12:43:37;3.33;;;1.10;;
14903;SDS011;7543;53.148;8.234;2023-01-31T12:46:13;2.67;;;0.80;;
14903;SDS011;7543;53.148;8.234;2023-01-31T12:48:50;0.97;;;0.60;;
14903;SDS011;7543;53.148;8.234;2023-01-31T12:51:30;2.57;;;0.83;;
14903;SDS011;7543;53.148;8.234;2023-01-31T12:54:07;0.70;;;0.70;;
14903;SDS011;7543;53.148;8.234;2023-01-31T12:56:46;3.77;;;0.83;;
14903;SDS011;7543;53.148;8.234;2023-01-31T12:59:25;1.03;;;0.87;;
14903;SDS011;7543;53.148;8.234;2023-01-31T13:02:01;2.57;;;1.00;;
14903;SDS011;7543;53.148;8.234;2023-01-31T13:04:40;1.53;;;0.60;;
14903;SDS011;7543;53.148;8.234;2023-01-31T13:07:13;0.77;;;0.67;;
14903;SDS011;7543;53.148;8.234;2023-01-31T13:13:34;1.60;;;0.70;;
14903;SDS011;7543;53.148;8.234;2023-01-31T13:16:09;1.17;;;0.60;;
14903;SDS011;7543;53.148;8.234;2023-01-31T13:18:39;3.87;;;1.10;;
14903;SDS011;7543;53.148;8.234;2023-01-31T13:21:09;1.00;;;0.80;;
14903;SDS011;7543;53.148;8.234;2023-01-31T13:23:42;1.53;;;0.80;;
14903;SDS011;7543;53.148;8.234;2023-01-31T13:26:16;4.23;;;1.10;;
14903;SDS011;7543;53.148;8.234;2023-01-31T13:28:48;4.90;;;1.10;;
14903;SDS011;7543;53.148;8.234;2023-01-31T13:31:19;1.47;;;1.00;;
14903;SDS011;7543;53.148;8.234;2023-01-31T13:33:51;2.63;;;1.30;;
14903;SDS011;7543;53.148;8.234;2023-01-31T13:36:23;4.30;;;0.93;;
14903;SDS011;7543;53.148;8.234;2023-01-31T13:38:55;1.70;;;0.90;;
14903;SDS011;7543;53.148;8.234;2023-01-31T13:41:26;3.83;;;1.00;;
14903;SDS011;7543;53.148;8.234;2023-01-31T13:43:55;3.60;;;1.20;;
14903;SDS011;7543;53.148;8.234;2023-01-31T13:46:27;6.17;;;1.60;;
14903;SDS011;7543;53.148;8.234;2023-01-31T13:48:57;4.20;;;1.00;;
14903;SDS011;7543;53.148;8.234;2023-01-31T13:51:28;3.00;;;1.07;;
14903;SDS011;7543;53.148;8.234;2023-01-31T13:54:03;2.93;;;1.40;;
14903;SDS011;7543;53.148;8.234;2023-01-31T13:56:34;6.33;;;1.37;;
14903;SDS011;7543;53.148;8.234;2023-01-31T14:02:27;8.63;;;1.63;;
14903;SDS011;7543;53.148;8.234;2023-01-31T14:05:02;5.40;;;1.37;;
14903;SDS011;7543;53.148;8.234;2023-01-31T14:07:31;2.40;;;1.37;;
14903;SDS011;7543;53.148;8.234;2023-01-31T14:13:19;5.60;;;1.60;;
14903;SDS011;7543;53.148;8.234;2023-01-31T14:15:53;6.10;;;1.33;;
14903;SDS011;7543;53.148;8.234;2023-01-31T14:18:35;7.67;;;1.23;;
14903;SDS011;7543;53.148;8.234;2023-01-31T14:27:28;5.60;;;2.10;;
14903;SDS011;7543;53.148;8.234;2023-01-31T14:30:34;5.80;;;1.40;;
14903;SDS011;7543;53.148;8.234;2023-01-31T14:33:07;10.00;;;1.90;;
14903;SDS011;7543;53.148;8.234;2023-01-31T14:35:58;7.70;;;1.30;;
14903;SDS011;7543;53.148;8.234;2023-01-31T14:38:49;5.50;;;1.50;;
14903;SDS011;7543;53.148;8.234;2023-01-31T14:41:56;7.73;;;1.60;;
14903;SDS011;7543;53.148;8.234;2023-01-31T14:44:44;5.40;;;1.33;;
14903;SDS011;7543;53.148;8.234;2023-01-31T14:47:22;3.20;;;1.40;;
14903;SDS011;7543;53.148;8.234;2023-01-31T14:49:59;8.10;;;2.13;;
14903;SDS011;7543;53.148;8.234;2023-01-31T14:52:44;6.60;;;1.60;;
14903;SDS011;7543;53.148;8.234;2023-01-31T14:55:25;5.03;;;1.83;;
14903;SDS011;7543;53.148;8.234;2023-01-31T14:57:59;4.80;;;1.57;;
14903;SDS011;7543;53.148;8.234;2023-01-31T15:00:30;8.53;;;1.97;;
14903;SDS011;7543;53.148;8.234;2023-01-31T15:03:01;8.33;;;1.77;;
14903;SDS011;7543;53.148;8.234;2023-01-31T15:05:42;8.33;;;1.73;;
14903;SDS011;7543;53.148;8.234;2023-01-31T15:14:17;7.37;;;2.00;;
14903;SDS011;7543;53.148;8.234;2023-01-31T15:16:52;7.00;;;1.50;;
14903;SDS011;7543;53.148;8.234;2023-01-31T15:19:22;4.00;;;1.50;;
14903;SDS011;7543;53.148;8.234;2023-01-31T15:21:51;10.03;;;1.83;;
14903;SDS011;7543;53.148;8.234;2023-01-31T15:24:23;5.47;;;1.63;;
14903;SDS011;7543;53.148;8.234;2023-01-31T15:26:53;9.53;;;1.80;;
14903;SDS011;7543;53.148;8.234;2023-01-31T15:29:22;5.83;;;1.93;;
14903;SDS011;7543;53.148;8.234;2023-01-31T15:31:54;8.63;;;1.60;;
14903;SDS011;7543;53.148;8.234;2023-01-31T15:34:26;2.43;;;0.90;;
14903;SDS011;7543;53.148;8.234;2023-01-31T15:36:59;8.10;;;1.53;;
14903;SDS011;7543;53.148;8.234;2023-01-31T15:39:31;8.30;;;1.37;;
14903;SDS011;7543;53.148;8.234;2023-01-31T15:42:14;7.40;;;1.37;;
14903;SDS011;7543;53.148;8.234;2023-01-31T15:44:48;9.40;;;1.63;;
14903;SDS011;7543;53.148;8.234;2023-01-31T15:47:21;6.87;;;1.73;;
14903;SDS011;7543;53.148;8.234;2023-01-31T15:49:49;10.23;;;1.50;;
14903;SDS011;7543;53.148;8.234;2023-01-31T15:52:18;11.20;;;1.50;;
14903;SDS011;7543;53.148;8.234;2023-01-31T15:54:54;9.10;;;2.07;;
14903;SDS011;7543;53.148;8.234;2023-01-31T15:57:24;3.13;;;1.10;;
14903;SDS011;7543;53.148;8.234;2023-01-31T15:59:54;3.90;;;1.17;;
14903;SDS011;7543;53.148;8.234;2023-01-31T16:02:26;6.73;;;1.37;;
14903;SDS011;7543;53.148;8.234;2023-01-31T16:04:56;8.30;;;1.50;;